createdAt,value
2018-08-17T08:47:27.170Z,15.23
2018-08-17T08:50:30.264Z,12.93
2018-08-17T08:53:33.359Z,13.57
2018-08-17T08:56:36.456Z,12.73
2018-08-17T08:59:39.544Z,11.83
2018-08-17T09:02:42.593Z,13.80
2018-08-17T09:05:45.687Z,14.20
2018-08-17T09:08:48.750Z,13.70
2018-08-17T09:11:51.838Z,14.17
2018-08-17T09:14:54.914Z,13.57
2018-08-17T09:17:57.999Z,14.37
2018-08-17T09:21:01.172Z,12.63
2018-08-17T09:24:04.269Z,13.30
2018-08-17T09:27:07.438Z,12.20
2018-08-17T09:30:12.015Z,13.87
2018-08-17T09:33:15.038Z,11.73
2018-08-17T09:36:18.136Z,12.20
2018-08-17T09:39:21.238Z,12.33
2018-08-17T09:42:24.320Z,11.73
2018-08-17T09:45:27.441Z,13.03
2018-08-17T09:48:30.497Z,11.87
2018-08-17T09:51:36.269Z,11.77
2018-08-17T09:54:39.355Z,10.47
2018-08-17T09:57:42.592Z,10.50
2018-08-17T10:00:50.944Z,11.07
2018-08-17T10:03:59.580Z,10.43
2018-08-17T10:07:08.036Z,12.33
2018-08-17T10:10:16.410Z,10.80
2018-08-17T10:13:19.481Z,13.07
2018-08-17T10:16:22.556Z,11.80
2018-08-17T10:19:25.656Z,11.03
2018-08-17T10:22:28.745Z,12.17
2018-08-17T10:25:31.833Z,12.57
2018-08-17T10:28:34.914Z,11.73
2018-08-17T10:31:37.994Z,12.30
2018-08-17T10:34:41.087Z,12.93
2018-08-17T10:37:44.157Z,12.20
2018-08-17T10:40:47.319Z,11.43
2018-08-17T10:43:50.357Z,10.83
2018-08-17T10:46:53.437Z,12.30
2018-08-17T10:49:56.678Z,11.90
2018-08-17T10:53:01.074Z,11.70
2018-08-17T10:56:04.569Z,9.50
2018-08-17T10:59:07.771Z,10.73
2018-08-17T11:02:11.050Z,12.17
2018-08-17T11:05:15.637Z,10.63
2018-08-17T11:08:18.924Z,12.70
2018-08-17T11:11:22.236Z,12.10
2018-08-17T11:14:25.476Z,12.73
2018-08-17T11:17:28.818Z,12.83
2018-08-17T11:20:32.142Z,10.93
2018-08-17T11:23:35.334Z,10.83
2018-08-17T11:26:38.556Z,10.07
2018-08-17T11:29:41.815Z,8.13
2018-08-17T11:32:45.059Z,8.67
2018-08-17T11:35:48.306Z,8.47
2018-08-17T11:38:51.599Z,8.87
2018-08-17T11:41:54.927Z,10.23
2018-08-17T11:44:58.067Z,14.00
2018-08-17T11:48:01.494Z,9.27
2018-08-17T11:51:04.797Z,8.60
2018-08-17T11:54:10.142Z,9.33
2018-08-17T11:57:13.362Z,9.00
2018-08-17T12:00:16.698Z,10.20
2018-08-17T12:03:19.916Z,10.07
2018-08-17T12:06:23.154Z,9.40
2018-08-17T12:09:26.518Z,9.07
2018-08-17T12:12:30.569Z,9.27
2018-08-17T12:15:37.121Z,8.80
2018-08-17T12:18:40.413Z,8.40
2018-08-17T12:21:43.689Z,8.67
2018-08-17T12:24:46.956Z,9.17
2018-08-17T12:27:58.083Z,8.10
2018-08-17T12:31:01.192Z,8.60
2018-08-17T12:34:04.250Z,7.97
2018-08-17T12:37:07.389Z,7.33
2018-08-17T12:40:10.567Z,8.50
2018-08-17T12:43:14.649Z,7.80
2018-08-17T12:46:17.727Z,8.27
2018-08-17T12:49:20.830Z,7.63
2018-08-17T12:52:24.001Z,8.03
2018-08-17T12:55:27.009Z,7.40
2018-08-17T12:58:30.104Z,8.23
2018-08-17T13:01:33.205Z,7.67
2018-08-17T13:04:36.290Z,7.30
2018-08-17T13:07:39.437Z,7.23
2018-08-17T13:10:42.534Z,9.70
2018-08-17T13:13:45.554Z,7.03
2018-08-17T13:16:48.640Z,6.80
2018-08-17T13:19:51.714Z,6.50
2018-08-17T13:22:54.856Z,7.20
2018-08-17T13:25:57.852Z,6.57
2018-08-17T13:29:01.147Z,6.63
2018-08-17T13:32:04.221Z,7.10
2018-08-17T13:35:07.312Z,6.57
2018-08-17T13:38:10.383Z,6.27
2018-08-17T13:41:13.429Z,7.17
2018-08-17T13:44:16.542Z,7.30
2018-08-17T13:47:19.613Z,6.27
2018-08-17T13:50:22.681Z,6.67
2018-08-17T13:53:25.793Z,6.07
2018-08-17T13:56:28.894Z,5.67
2018-08-17T13:59:31.976Z,6.73
2018-08-17T14:02:35.094Z,6.50
2018-08-17T14:05:38.165Z,9.10
2018-08-17T14:08:41.267Z,6.40
2018-08-17T14:11:44.373Z,6.63
2018-08-17T14:14:47.449Z,6.60
2018-08-17T14:17:50.594Z,6.30
2018-08-17T14:20:53.657Z,6.20
2018-08-17T14:23:56.744Z,6.00
2018-08-17T14:26:59.827Z,6.70
2018-08-17T14:30:03.016Z,10.90
2018-08-17T14:33:06.290Z,7.00
2018-08-17T14:36:16.079Z,7.27
2018-08-17T14:39:19.522Z,6.60
2018-08-17T14:42:22.703Z,6.83
2018-08-17T14:45:25.916Z,6.70
2018-08-17T14:48:29.366Z,5.83
2018-08-17T14:51:32.609Z,6.50
2018-08-17T14:54:35.766Z,5.43
2018-08-17T14:57:39.000Z,5.63
2018-08-17T15:00:42.366Z,6.90
2018-08-17T15:03:45.588Z,7.03
2018-08-17T15:06:48.790Z,6.00
2018-08-17T15:09:52.094Z,5.70
2018-08-17T15:12:55.444Z,5.00
2018-08-17T15:15:58.703Z,4.40
2018-08-17T15:19:02.006Z,4.53
2018-08-17T15:22:05.195Z,4.20
2018-08-17T15:25:08.480Z,4.50
2018-08-17T15:28:11.724Z,4.40
2018-08-17T15:31:15.042Z,4.40
2018-08-17T15:34:18.302Z,4.20
2018-08-17T15:37:21.494Z,4.40
2018-08-17T15:40:24.666Z,4.57
2018-08-17T15:43:34.210Z,4.80
2018-08-17T15:46:37.443Z,4.43
2018-08-17T15:49:41.627Z,4.50
2018-08-17T15:52:45.079Z,5.07
2018-08-17T15:55:48.386Z,4.30
2018-08-17T15:58:51.685Z,4.87
2018-08-17T16:01:54.917Z,5.27
2018-08-17T16:04:58.125Z,5.03
2018-08-17T16:08:01.522Z,5.93
2018-08-17T16:11:04.776Z,6.00
2018-08-17T16:14:08.081Z,4.80
2018-08-17T16:17:11.218Z,5.70
2018-08-17T16:20:14.519Z,6.07
2018-08-17T16:23:17.752Z,6.33
2018-08-17T16:26:21.030Z,6.10
2018-08-17T16:29:24.423Z,6.33
2018-08-17T16:32:27.713Z,6.60
2018-08-17T16:35:30.982Z,6.37
2018-08-17T16:38:36.762Z,7.27
2018-08-17T16:41:40.046Z,6.53
2018-08-17T16:44:43.336Z,7.07
2018-08-17T16:47:46.578Z,6.40
2018-08-17T16:50:49.770Z,6.57
2018-08-17T16:53:53.047Z,6.10
2018-08-17T16:56:56.371Z,6.33
2018-08-17T17:00:00.554Z,6.37
2018-08-17T17:03:03.869Z,6.30
2018-08-17T17:06:07.112Z,5.87
2018-08-17T17:09:10.458Z,6.07
2018-08-17T17:12:21.090Z,6.37
2018-08-17T17:15:24.313Z,5.73
2018-08-17T17:18:33.634Z,5.90
2018-08-17T17:21:36.930Z,6.03
2018-08-17T17:24:40.205Z,5.90
2018-08-17T17:27:43.457Z,6.07
2018-08-17T17:30:53.617Z,7.20
2018-08-17T17:33:56.867Z,8.67
2018-08-17T17:37:00.370Z,7.03
2018-08-17T17:40:03.875Z,5.63
2018-08-17T17:43:07.478Z,5.80
2018-08-17T17:46:10.725Z,7.83
2018-08-17T17:49:14.114Z,6.03
2018-08-17T17:52:17.377Z,5.70
2018-08-17T17:55:20.574Z,5.97
2018-08-17T17:58:23.819Z,5.90
2018-08-17T18:01:27.002Z,7.00
2018-08-17T18:04:31.405Z,5.70
2018-08-17T18:07:49.900Z,5.50
2018-08-17T18:10:53.193Z,5.13
2018-08-17T18:13:56.413Z,6.20
2018-08-17T18:17:02.870Z,6.57
2018-08-17T18:20:06.027Z,4.80
2018-08-17T18:23:09.334Z,5.77
2018-08-17T18:26:16.942Z,4.80
2018-08-17T18:29:20.318Z,6.40
2018-08-17T18:32:23.570Z,4.93
2018-08-17T18:35:26.778Z,4.80
2018-08-17T18:38:29.998Z,4.10
2018-08-17T18:41:33.250Z,4.73
2018-08-17T18:44:36.545Z,4.57
2018-08-17T18:47:39.814Z,5.53
2018-08-17T18:50:43.067Z,6.67
2018-08-17T18:53:46.365Z,4.73
2018-08-17T18:56:49.785Z,5.80
2018-08-17T18:59:53.107Z,6.13
2018-08-17T19:02:57.266Z,4.23
2018-08-17T19:06:00.466Z,5.93
2018-08-17T19:09:04.422Z,4.03
2018-08-17T19:12:07.626Z,8.00
2018-08-17T19:15:13.238Z,6.83
2018-08-17T19:18:16.307Z,4.50
2018-08-17T19:21:19.369Z,5.03
2018-08-17T19:24:22.413Z,5.60
2018-08-17T19:27:33.984Z,9.73
2018-08-17T19:30:37.058Z,6.30
2018-08-17T19:33:40.122Z,4.47
2018-08-17T19:36:43.228Z,2.87
2018-08-17T19:39:47.137Z,3.10
2018-08-17T19:42:50.232Z,7.10
2018-08-17T19:45:53.395Z,4.53
2018-08-17T19:48:56.458Z,3.20
2018-08-17T19:51:59.522Z,3.77
2018-08-17T19:55:02.561Z,3.37
2018-08-17T19:58:05.858Z,4.47
2018-08-17T20:01:08.934Z,3.03
2018-08-17T20:04:12.017Z,7.13
2018-08-17T20:07:15.092Z,4.90
2018-08-17T20:10:18.165Z,4.40
2018-08-17T20:13:21.269Z,4.27
2018-08-17T20:16:28.381Z,3.60
2018-08-17T20:19:36.865Z,5.23
2018-08-17T20:22:39.961Z,11.50
2018-08-17T20:25:43.052Z,3.83
2018-08-17T20:28:52.701Z,5.53
2018-08-17T20:31:55.793Z,4.50
2018-08-17T20:34:58.851Z,7.33
2018-08-17T20:41:34.069Z,6.00
2018-08-17T20:44:37.184Z,5.80
2018-08-17T20:47:41.160Z,4.57
2018-08-17T20:50:44.228Z,4.73
2018-08-17T20:53:47.990Z,4.33
2018-08-17T20:56:51.087Z,5.47
2018-08-17T20:59:54.154Z,5.60
2018-08-17T21:02:57.252Z,5.63
2018-08-17T21:06:00.366Z,6.27
2018-08-17T21:09:04.513Z,5.63
2018-08-17T21:12:07.598Z,5.83
2018-08-17T21:15:10.673Z,6.13
2018-08-17T21:18:13.739Z,6.47
2018-08-17T21:21:16.817Z,7.60
2018-08-17T21:24:19.877Z,6.43
2018-08-17T21:27:22.956Z,6.10
2018-08-17T21:30:26.044Z,6.03
2018-08-17T21:33:29.106Z,6.27
2018-08-17T21:36:32.169Z,6.13
2018-08-17T21:39:35.265Z,5.57
2018-08-17T21:42:38.384Z,6.00
2018-08-17T21:45:44.625Z,5.77
2018-08-17T21:48:47.709Z,6.27
2018-08-17T21:51:55.705Z,6.40
2018-08-17T21:54:58.775Z,6.37
2018-08-17T21:58:01.853Z,6.40
2018-08-17T22:01:04.921Z,5.60
2018-08-17T22:04:08.027Z,6.03
2018-08-17T22:07:28.808Z,6.50
2018-08-17T22:10:31.887Z,6.00
2018-08-17T22:13:35.921Z,6.27
2018-08-17T22:16:39.006Z,6.40
2018-08-17T22:19:42.981Z,6.13
2018-08-17T22:22:46.045Z,6.40
2018-08-17T22:25:49.125Z,5.90
2018-08-17T22:28:52.234Z,5.63
2018-08-17T22:31:55.336Z,6.13
2018-08-17T22:34:58.421Z,6.00
2018-08-17T22:38:01.519Z,6.40
2018-08-17T22:41:04.610Z,6.20
2018-08-17T22:44:11.942Z,6.20
2018-08-17T22:47:16.836Z,5.43
2018-08-17T22:50:19.908Z,5.87
2018-08-17T22:53:22.980Z,5.80
2018-08-17T22:56:27.270Z,5.57
2018-08-17T22:59:30.349Z,5.70
2018-08-17T23:02:33.448Z,5.57
2018-08-17T23:05:36.666Z,5.20
2018-08-17T23:08:39.757Z,5.53
2018-08-17T23:11:42.845Z,5.00
2018-08-17T23:14:45.984Z,5.63
2018-08-17T23:17:54.404Z,4.70
2018-08-17T23:20:57.488Z,5.50
2018-08-17T23:24:00.658Z,5.57
2018-08-17T23:27:03.660Z,5.27
2018-08-17T23:30:07.053Z,5.47
2018-08-17T23:33:10.324Z,4.87
2018-08-17T23:36:13.401Z,5.87
2018-08-17T23:39:16.497Z,5.53
2018-08-17T23:42:19.565Z,5.30
2018-08-17T23:45:22.636Z,5.70
2018-08-17T23:48:25.732Z,5.07
2018-08-17T23:51:28.809Z,10.10
2018-08-17T23:54:31.923Z,5.63
2018-08-17T23:57:35.109Z,5.37
